Time;durP1;ratioP1;P1;durP2;ratioP2;P2;SDS_P1;SDS_P2;PMS_P1;PMS_P2;Temp;Humidity;BMP_temperature;BMP_pressure;BME280_temperature;BME280_humidity;BME280_pressure;Samples;Min_cycle;Max_cycle;Signal;HPM_P1;HPM_P2
2024/01/24 00:26:57;;;;;;;7.60;3.33;;;11.30;99.90;;;;;;4751334;30;20206;-93
2024/01/24 00:48:09;;;;;;;6.18;3.42;;;11.40;99.90;;;;;;4756804;30;20048;-92
2024/01/24 01:58:52;;;;;;;3.80;1.10;;;11.60;99.90;;;;;;4755538;30;20158;-93
2024/01/24 02:05:40;;;;;;;6.00;1.63;;;11.70;99.90;;;;;;4755455;30;20039;-93
2024/01/24 02:12:21;;;;;;;7.18;1.17;;;11.60;99.90;;;;;;4737034;30;20075;-93
2024/01/24 02:18:29;;;;;;;4.35;1.50;;;11.70;99.90;;;;;;4753476;30;20051;-93
2024/01/24 02:21:02;;;;;;;5.80;1.88;;;11.70;99.90;;;;;;4739698;30;20112;-93
2024/01/24 02:27:39;;;;;;;6.15;2.05;;;11.60;99.90;;;;;;4758978;29;20057;-93
2024/01/24 02:30:08;;;;;;;6.80;1.63;;;11.50;99.90;;;;;;4740090;30;20500;-92
2024/01/24 02:32:58;;;;;;;4.63;1.40;;;11.50;99.90;;;;;;4739843;30;20091;-94
2024/01/24 02:41:42;;;;;;;5.13;1.67;;;11.30;99.90;;;;;;4753145;30;20059;-93
2024/01/24 02:44:53;;;;;;;7.22;2.75;;;11.30;99.90;;;;;;4736170;30;20063;-94
2024/01/24 02:55:00;;;;;;;7.45;1.60;;;11.30;99.90;;;;;;4755125;30;20075;-94
2024/01/24 02:58:01;;;;;;;5.90;2.30;;;11.10;99.90;;;;;;4749401;30;20055;-94
2024/01/24 03:00:32;;;;;;;11.18;2.88;;;11.20;99.90;;;;;;4739798;30;20052;-93
2024/01/24 03:03:00;;;;;;;7.35;2.10;;;11.10;99.90;;;;;;4754624;30;20083;-94
2024/01/24 03:09:16;;;;;;;11.68;3.22;;;11.00;99.90;;;;;;4754609;30;20047;-94
2024/01/24 03:15:19;;;;;;;7.38;2.55;;;10.90;99.90;;;;;;4754118;30;20053;-94
2024/01/24 03:18:03;;;;;;;12.73;3.13;;;10.90;99.90;;;;;;4749325;30;20139;-95
2024/01/24 03:25:08;;;;;;;16.05;4.38;;;10.80;99.90;;;;;;4684189;30;20463;-94
2024/01/24 03:31:05;;;;;;;22.77;4.30;;;10.70;99.90;;;;;;4668949;30;20068;-94
2024/01/24 03:34:19;;;;;;;13.57;4.00;;;9.80;99.90;;;;;;4683448;30;20172;-94
2024/01/24 03:36:50;;;;;;;13.23;3.90;;;10.70;99.90;;;;;;4668413;30;20061;-94
2024/01/24 03:39:16;;;;;;;17.67;4.28;;;10.70;99.90;;;;;;4669315;30;20118;-95
2024/01/24 03:41:50;;;;;;;15.43;4.40;;;10.60;99.90;;;;;;4669204;30;20613;-94
2024/01/24 03:48:36;;;;;;;18.88;4.07;;;10.60;99.90;;;;;;4687301;30;20126;-94
2024/01/24 03:51:11;;;;;;;15.07;4.13;;;10.50;99.90;;;;;;4689902;30;20059;-95
2024/01/24 03:54:13;;;;;;;18.25;3.92;;;10.60;99.90;;;;;;4754441;30;20112;-94
2024/01/24 03:56:45;;;;;;;17.60;5.30;;;10.60;99.90;;;;;;4738947;30;20060;-94
2024/01/24 03:59:30;;;;;;;15.07;3.72;;;10.70;99.90;;;;;;4739318;30;20113;-95
2024/01/24 04:01:56;;;;;;;13.95;3.85;;;10.70;99.90;;;;;;4724070;30;20068;-94
2024/01/24 04:04:32;;;;;;;;;;;;;;;;;;;;;
2024/01/24 04:07:55;;;;;;;18.35;3.90;;;10.70;99.90;;;;;;4752454;30;20102;-94
2024/01/24 04:13:53;;;;;;;11.30;4.60;;;10.70;99.90;;;;;;4752720;30;20048;-95
2024/01/24 04:17:15;;;;;;;;;;;;;;;;;;;;;
2024/01/24 04:19:43;;;;;;;21.30;5.18;;;10.60;99.90;;;;;;4700365;30;20061;-94
2024/01/24 04:22:12;;;;;;;22.60;5.00;;;10.70;99.90;;;;;;4726789;30;20515;-95
2024/01/24 04:25:01;;;;;;;13.55;5.38;;;10.30;99.90;;;;;;4739547;30;20067;-94
2024/01/24 04:31:32;;;;;;;22.73;5.75;;;10.60;99.90;;;;;;4753163;30;20063;-95
2024/01/24 04:38:01;;;;;;;15.38;5.10;;;10.50;99.90;;;;;;4754214;30;20042;-95
2024/01/24 04:44:01;;;;;;;23.40;5.97;;;10.50;91.90;;;;;;4754392;30;19961;-96
2024/01/24 04:46:27;;;;;;;22.00;5.35;;;10.50;99.90;;;;;;4738756;30;20117;-94
2024/01/24 04:49:05;;;;;;;23.50;5.80;;;10.60;99.90;;;;;;4738726;30;20055;-95
2024/01/24 04:52:05;;;;;;;20.48;7.07;;;10.10;99.90;;;;;;4752077;30;20102;-95
2024/01/24 04:58:24;;;;;;;24.38;5.85;;;10.40;99.90;;;;;;4754716;30;20038;-95
2024/01/24 05:01:17;;;;;;;21.20;6.32;;;10.30;99.90;;;;;;4739221;30;20052;-95
2024/01/24 05:03:43;;;;;;;28.02;6.65;;;10.40;99.90;;;;;;4739207;30;20053;-94
2024/01/24 05:06:18;;;;;;;32.80;7.40;;;10.60;99.90;;;;;;4738850;30;20057;-95
2024/01/24 05:08:45;;;;;;;21.65;5.15;;;10.20;99.90;;;;;;4753573;30;20048;-96
2024/01/24 05:11:15;;;;;;;26.10;7.43;;;10.10;99.90;;;;;;4739230;30;20048;-96
2024/01/24 05:17:32;;;;;;;27.55;8.10;;;10.10;99.90;;;;;;4754925;30;20511;-96
2024/01/24 05:23:56;;;;;;;23.05;6.97;;;10.10;90.60;;;;;;4755015;30;19921;-96
2024/01/24 05:30:10;;;;;;;;;;;10.10;98.00;;;;;;4756880;30;20083;-96
2024/01/24 05:32:38;;;;;;;22.38;5.85;;;10.10;78.50;;;;;;4743004;30;19930;-95
2024/01/24 05:38:55;;;;;;;;;;;;;;;;;;;;;
2024/01/24 05:44:34;;;;;;;24.08;7.72;;;10.10;99.90;;;;;;4756896;30;20197;-96
2024/01/24 05:47:22;;;;;;;30.00;7.60;;;10.00;99.90;;;;;;4742577;30;20056;-95
2024/01/24 05:54:05;;;;;;;24.75;6.28;;;10.10;95.00;;;;;;4739298;30;20120;-96
2024/01/24 06:11:14;;;;;;;33.90;9.07;;;10.30;95.70;;;;;;4739347;29;20052;-96
2024/01/24 06:13:45;;;;;;;33.17;7.55;;;8.70;99.90;;;;;;4741486;30;20040;-96
2024/01/24 06:16:13;;;;;;;23.98;7.80;;;9.60;99.90;;;;;;4742962;30;20052;-96
2024/01/24 06:18:54;;;;;;;;;;;;;;;;;;;;;
2024/01/24 06:22:10;;;;;;;;;;;;;;;;;;;;;
2024/01/24 06:24:45;;;;;;;26.17;7.13;;;9.20;99.90;;;;;;4741824;30;20103;-96
2024/01/24 06:27:18;;;;;;;36.30;7.68;;;9.60;99.90;;;;;;4727946;30;20048;-96
2024/01/24 06:29:44;;;;;;;32.42;8.10;;;9.60;99.90;;;;;;4741637;30;20058;-96
2024/01/24 06:32:18;;;;;;;27.25;7.18;;;8.60;99.90;;;;;;4756779;30;20090;-96
2024/01/24 06:34:47;;;;;;;30.55;7.50;;;9.70;99.90;;;;;;4741968;30;20534;-96
2024/01/24 06:37:15;;;;;;;34.13;8.35;;;9.60;99.90;;;;;;4742058;30;20052;-95
2024/01/24 06:43:25;;;;;;;;;;;9.60;60.30;;;;;;4757065;30;20066;-96
2024/01/24 06:49:25;;;;;;;25.65;7.55;;;9.70;85.70;;;;;;4757177;30;20117;-96
2024/01/24 06:51:58;;;;;;;21.35;7.28;;;9.60;99.90;;;;;;4727169;30;20052;-96
2024/01/24 06:54:36;;;;;;;27.00;8.40;;;9.40;99.90;;;;;;4726801;30;20150;-96
2024/01/24 06:57:06;;;;;;;25.00;7.80;;;9.60;99.90;;;;;;4737043;30;20048;-95
2024/01/24 06:59:32;;;;;;;25.13;8.15;;;9.70;99.90;;;;;;4738795;30;20049;-96
2024/01/24 07:02:03;;;;;;;21.75;7.80;;;9.60;99.90;;;;;;4752781;30;20110;-95
2024/01/24 07:04:38;;;;;;;22.77;9.57;;;9.60;99.90;;;;;;4709569;30;20073;-96
2024/01/24 07:07:15;;;;;;;32.10;7.25;;;9.70;99.90;;;;;;4753623;30;20122;-95
2024/01/24 07:09:41;;;;;;;31.17;8.05;;;9.70;99.90;;;;;;4753410;30;20049;-96
2024/01/24 07:12:12;;;;;;;26.60;6.40;;;9.80;99.90;;;;;;4723882;30;20064;-95
2024/01/24 07:14:47;;;;;;;;;;;;;;;;;;;;;
2024/01/24 07:17:34;;;;;;;24.75;7.70;;;9.70;99.90;;;;;;4752920;30;20095;-96
2024/01/24 07:20:15;;;;;;;23.98;7.13;;;9.80;98.70;;;;;;4722910;30;20045;-96
2024/01/24 07:22:46;;;;;;;30.77;8.52;;;10.10;99.90;;;;;;4751946;30;20118;-96
2024/01/24 07:25:24;;;;;;;30.48;8.02;;;9.60;99.30;;;;;;4715696;30;20052;-96
2024/01/24 07:27:50;;;;;;;34.60;8.18;;;9.60;99.90;;;;;;4758392;30;20055;-95
2024/01/24 07:30:18;;;;;;;28.00;6.82;;;9.60;99.90;;;;;;4757131;30;20064;-96
2024/01/24 07:32:47;;;;;;;34.28;8.55;;;9.50;99.90;;;;;;4757542;30;20094;-96
2024/01/24 07:35:12;;;;;;;26.38;9.27;;;9.60;99.90;;;;;;4757005;30;20051;-95
2024/01/24 07:37:43;;;;;;;31.53;10.97;;;9.50;99.90;;;;;;4757877;30;20548;-96
2024/01/24 07:40:10;;;;;;;29.00;9.40;;;9.50;99.90;;;;;;4757884;30;20101;-96
2024/01/24 07:42:58;;;;;;;35.03;8.15;;;9.40;99.90;;;;;;4742692;30;20047;-94
2024/01/24 07:45:45;;;;;;;28.63;8.32;;;9.40;91.90;;;;;;4757343;30;20100;-94
2024/01/24 07:48:14;;;;;;;36.50;9.10;;;9.40;99.90;;;;;;4757640;30;20058;-95
2024/01/24 07:50:46;;;;;;;33.00;9.63;;;9.40;99.90;;;;;;4757338;30;20051;-95
2024/01/24 07:53:20;;;;;;;34.50;8.60;;;9.40;99.90;;;;;;4756828;30;20051;-95
2024/01/24 07:55:51;;;;;;;32.90;8.20;;;9.40;99.90;;;;;;4749362;30;20114;-96
2024/01/24 07:58:16;;;;;;;27.90;7.88;;;9.40;99.90;;;;;;4727462;30;20116;-95
2024/01/24 08:00:42;;;;;;;36.43;10.20;;;9.40;99.90;;;;;;4738946;30;20550;-95
2024/01/24 08:03:18;;;;;;;;;;;;;;;;;;;;;
2024/01/24 08:05:54;;;;;;;31.67;9.10;;;9.40;99.90;;;;;;4737387;30;20068;-96
2024/01/24 08:08:20;;;;;;;35.67;8.70;;;9.40;99.90;;;;;;4724798;30;20551;-95
2024/01/24 08:10:50;;;;;;;28.03;8.40;;;9.40;99.90;;;;;;4738303;30;20091;-95
2024/01/24 08:13:25;;;;;;;29.75;8.80;;;9.50;99.90;;;;;;4726761;30;20142;-95
2024/01/24 08:15:57;;;;;;;35.58;9.15;;;9.40;99.90;;;;;;4739844;30;20118;-95
2024/01/24 08:18:38;;;;;;;;;;;;;;;;;;;;;
2024/01/24 08:21:14;;;;;;;33.20;8.93;;;8.50;99.90;;;;;;4739353;30;20093;-95
2024/01/24 08:23:43;;;;;;;36.30;9.20;;;9.10;90.20;;;;;;4724087;30;20052;-96
2024/01/24 08:26:29;;;;;;;36.25;8.35;;;8.90;99.90;;;;;;4739555;30;20454;-95
2024/01/24 08:29:04;;;;;;;35.80;9.27;;;9.40;99.90;;;;;;4725010;30;20071;-96
2024/01/24 08:31:36;;;;;;;29.33;8.57;;;9.50;99.90;;;;;;4725504;30;20067;-95
2024/01/24 08:34:04;;;;;;;25.63;7.97;;;9.40;99.90;;;;;;4724793;30;20052;-96
2024/01/24 08:36:38;;;;;;;30.48;6.95;;;9.40;99.90;;;;;;4738645;30;20092;-96
2024/01/24 08:39:06;;;;;;;32.90;9.63;;;9.40;99.90;;;;;;4724462;30;20504;-96
2024/01/24 08:41:43;;;;;;;28.38;7.72;;;9.50;99.90;;;;;;4739023;30;20055;-95
2024/01/24 08:44:17;;;;;;;30.05;9.82;;;8.50;99.90;;;;;;4738435;30;20080;-95
2024/01/24 08:46:48;;;;;;;;;;;9.40;99.90;;;;;;4712260;30;20098;-96
2024/01/24 08:49:17;;;;;;;34.80;9.40;;;9.40;6.20;;;;;;4724770;30;19926;-96
2024/01/24 08:51:47;;;;;;;42.45;11.10;;;9.50;99.90;;;;;;4708990;30;20056;-96
2024/01/24 08:54:13;;;;;;;38.65;10.27;;;9.10;99.90;;;;;;4724091;30;20441;-96
2024/01/24 08:56:44;;;;;;;30.73;8.63;;;9.40;99.90;;;;;;4733113;30;20052;-95
2024/01/24 08:59:17;;;;;;;33.80;11.80;;;9.40;99.90;;;;;;4723847;30;20068;-96
2024/01/24 09:01:55;;;;;;;37.20;9.30;;;9.30;99.90;;;;;;4723660;30;20064;-95
2024/01/24 09:04:28;;;;;;;44.45;9.10;;;9.30;99.90;;;;;;4727033;30;20049;-95
2024/01/24 09:06:56;;;;;;;38.78;12.95;;;9.40;99.90;;;;;;4740092;30;20114;-95
2024/01/24 09:09:29;;;;;;;32.33;10.02;;;9.40;99.90;;;;;;4741183;30;20144;-95
2024/01/24 09:11:57;;;;;;;34.15;10.40;;;9.40;99.90;;;;;;4741515;30;20056;-95
2024/01/24 09:14:26;;;;;;;36.88;9.05;;;9.40;99.90;;;;;;4741855;30;20057;-95
2024/01/24 09:17:04;;;;;;;45.47;11.90;;;9.40;99.90;;;;;;4710766;30;20052;-96
2024/01/24 09:19:44;;;;;;;;;;;;;;;;;;;;;
2024/01/24 09:22:12;;;;;;;35.63;9.23;;;9.30;99.90;;;;;;4755129;30;20084;-94
2024/01/24 09:24:41;;;;;;;42.42;8.20;;;9.40;99.90;;;;;;4739779;30;20052;-96
2024/01/24 09:27:09;;;;;;;35.75;10.73;;;9.50;99.90;;;;;;4757009;30;20570;-94
2024/01/24 09:29:39;;;;;;;35.40;9.40;;;9.70;99.90;;;;;;4740424;30;20106;-96
2024/01/24 09:32:14;;;;;;;32.40;9.48;;;9.70;98.80;;;;;;4740867;30;20151;-96
2024/01/24 09:34:43;;;;;;;30.35;8.68;;;9.90;99.90;;;;;;4727323;30;20048;-95
2024/01/24 09:37:11;;;;;;;30.47;8.17;;;9.90;99.90;;;;;;4726730;30;20528;-95
2024/01/24 09:39:37;;;;;;;30.48;7.90;;;10.00;99.90;;;;;;4726318;30;20496;-96
2024/01/24 09:42:06;;;;;;;31.57;7.63;;;9.90;99.90;;;;;;4740350;30;20090;-96
2024/01/24 09:44:34;;;;;;;34.22;10.30;;;10.00;98.60;;;;;;4725842;30;20052;-96
2024/01/24 09:47:01;;;;;;;25.30;7.03;;;10.10;99.30;;;;;;4725685;30;20139;-95
2024/01/24 09:49:30;;;;;;;17.33;7.22;;;10.20;99.90;;;;;;4726008;30;20052;-95
2024/01/24 09:52:01;;;;;;;35.10;8.48;;;9.00;99.90;;;;;;4725268;30;20067;-95
2024/01/24 09:54:40;;;;;;;29.35;8.02;;;10.20;99.90;;;;;;4739875;30;20060;-95
2024/01/24 09:57:08;;;;;;;25.20;8.38;;;10.40;66.40;;;;;;4740107;30;20063;-94
2024/01/24 09:59:34;;;;;;;29.98;7.95;;;10.40;91.40;;;;;;4740107;30;20044;-95
2024/01/24 10:02:02;;;;;;;26.20;7.18;;;11.50;99.90;;;;;;4725358;30;20052;-94
2024/01/24 10:04:37;;;;;;;32.88;8.32;;;10.00;97.80;;;;;;4739628;30;20056;-95
2024/01/24 10:07:26;;;;;;;30.05;7.75;;;10.70;95.70;;;;;;4739729;30;20060;-96
2024/01/24 10:10:09;;;;;;;31.05;8.40;;;10.70;6.70;;;;;;4739711;30;20056;-95
2024/01/24 10:12:41;;;;;;;25.85;5.97;;;10.80;1.00;;;;;;4740031;30;20142;-95
2024/01/24 10:15:11;;;;;;;21.98;8.05;;;10.80;91.10;;;;;;4739317;30;20113;-96
2024/01/24 10:17:41;;;;;;;25.00;8.57;;;11.00;96.30;;;;;;4711019;30;20052;-95
2024/01/24 10:20:14;;;;;;;27.30;7.93;;;11.00;92.90;;;;;;4739624;30;20065;-94
2024/01/24 10:22:41;;;;;;;29.27;8.05;;;11.10;79.60;;;;;;4739925;30;20052;-94
2024/01/24 10:25:10;;;;;;;27.80;7.53;;;11.10;90.50;;;;;;4739605;30;20079;-95
2024/01/24 10:27:42;;;;;;;27.17;8.98;;;10.90;66.10;;;;;;4726101;30;20056;-95
2024/01/24 10:30:16;;;;;;;25.30;7.72;;;11.00;93.10;;;;;;4725128;30;20099;-94
2024/01/24 10:32:55;;;;;;;23.50;7.10;;;10.90;91.50;;;;;;4724646;30;20060;-96
2024/01/24 10:35:23;;;;;;;27.02;7.57;;;11.10;52.50;;;;;;4725168;30;20562;-96
2024/01/24 10:37:52;;;;;;;25.98;7.70;;;11.10;94.10;;;;;;4739638;30;20100;-94
2024/01/24 10:40:20;;;;;;;20.38;6.55;;;11.40;91.90;;;;;;4755208;30;20503;-94
2024/01/24 10:42:53;;;;;;;26.73;8.05;;;11.40;86.70;;;;;;4755377;30;20051;-95
2024/01/24 10:45:28;;;;;;;19.20;7.25;;;11.60;82.30;;;;;;4754252;30;20067;-96
2024/01/24 10:47:58;;;;;;;22.58;6.47;;;11.60;27.80;;;;;;4739540;30;20056;-95
2024/01/24 10:50:28;;;;;;;23.00;5.65;;;11.40;87.70;;;;;;4753627;30;20060;-94
2024/01/24 10:52:55;;;;;;;21.58;8.75;;;11.30;90.50;;;;;;4754683;30;20091;-95
2024/01/24 10:55:21;;;;;;;18.58;7.22;;;11.30;90.30;;;;;;4750960;30;20057;-94
2024/01/24 10:57:48;;;;;;;;;;;11.20;81.80;;;;;;4736489;30;20098;-95
2024/01/24 11:00:18;;;;;;;27.98;7.35;;;11.10;99.90;;;;;;4722571;30;19976;-95
2024/01/24 11:02:56;;;;;;;27.55;7.65;;;11.10;88.10;;;;;;4736821;30;20059;-95
2024/01/24 11:05:32;;;;;;;26.08;7.97;;;11.10;80.00;;;;;;4722935;30;20059;-95
2024/01/24 11:08:13;;;;;;;27.27;6.63;;;10.90;4.10;;;;;;4722131;30;20056;-95
2024/01/24 11:10:42;;;;;;;20.52;7.07;;;10.90;86.50;;;;;;4722142;30;20053;-95
2024/01/24 11:13:10;;;;;;;17.55;5.72;;;10.80;93.00;;;;;;4721978;30;20060;-96
2024/01/24 11:15:40;;;;;;;20.63;6.15;;;10.80;95.50;;;;;;4723140;30;20606;-94
2024/01/24 11:18:32;;;;;;;24.05;5.63;;;10.70;90.10;;;;;;4723744;30;20064;-94
2024/01/24 11:21:11;;;;;;;25.17;6.47;;;10.60;5.30;;;;;;4722989;30;20056;-96
2024/01/24 11:23:45;;;;;;;25.48;7.38;;;10.70;96.20;;;;;;4722703;30;20096;-94
2024/01/24 11:26:33;;;;;;;21.90;7.00;;;10.80;83.00;;;;;;4730565;30;20136;-96
2024/01/24 11:29:14;;;;;;;31.67;8.05;;;10.10;1.00;;;;;;4721145;30;20505;-95
2024/01/24 11:31:51;;;;;;;25.83;6.32;;;10.80;53.60;;;;;;4705667;30;20173;-94
2024/01/24 11:34:19;;;;;;;24.95;6.75;;;10.70;96.70;;;;;;4720671;30;20052;-94
2024/01/24 11:36:54;;;;;;;26.83;8.25;;;10.80;93.10;;;;;;4706673;30;20060;-95
2024/01/24 11:39:33;;;;;;;25.35;6.75;;;10.60;8.10;;;;;;4706289;30;20056;-96
2024/01/24 11:42:23;;;;;;;19.95;6.07;;;10.60;18.00;;;;;;4720832;30;20052;-94
2024/01/24 11:44:52;;;;;;;23.23;7.47;;;10.50;3.40;;;;;;4720664;30;20057;-94
2024/01/24 11:47:25;;;;;;;19.70;5.80;;;10.40;95.20;;;;;;4720534;30;20056;-94
2024/01/24 11:50:01;;;;;;;22.80;6.35;;;10.40;77.40;;;;;;4706080;30;20053;-95
2024/01/24 11:52:30;;;;;;;27.25;6.80;;;10.50;95.40;;;;;;4705886;30;20149;-95
2024/01/24 11:54:56;;;;;;;34.13;6.65;;;10.50;97.90;;;;;;4705750;30;20060;-95
2024/01/24 11:57:27;;;;;;;26.35;7.40;;;10.60;97.60;;;;;;4730251;30;20060;-96
2024/01/24 11:59:56;;;;;;;33.33;9.27;;;10.40;82.20;;;;;;4735821;30;20044;-94
2024/01/24 12:02:23;;;;;;;27.40;7.25;;;9.60;62.80;;;;;;4736171;30;20057;-95
2024/01/24 12:04:52;;;;;;;28.17;7.00;;;10.40;94.40;;;;;;4737460;30;20385;-94
2024/01/24 12:07:21;;;;;;;25.60;7.68;;;10.80;91.80;;;;;;4735892;30;20057;-95
2024/01/24 12:09:50;;;;;;;22.15;5.88;;;10.90;93.60;;;;;;4737078;30;20493;-95
2024/01/24 12:12:23;;;;;;;20.58;6.05;;;10.40;93.20;;;;;;4735715;30;20091;-94
2024/01/24 12:14:52;;;;;;;21.65;5.85;;;10.00;81.60;;;;;;4736098;30;20566;-94
2024/01/24 12:17:32;;;;;;;26.63;6.45;;;10.50;47.40;;;;;;4735365;30;20053;-94
2024/01/24 12:20:16;;;;;;;23.88;6.85;;;10.50;64.40;;;;;;4735565;30;20052;-94
2024/01/24 12:22:50;;;;;;;27.75;6.57;;;10.60;73.50;;;;;;4737877;30;20052;-95
2024/01/24 12:25:19;;;;;;;19.25;6.88;;;11.40;90.50;;;;;;4736989;30;20053;-95
2024/01/24 12:27:47;;;;;;;29.67;7.38;;;10.50;93.80;;;;;;4723385;30;20063;-94
2024/01/24 12:30:14;;;;;;;29.83;7.20;;;10.50;97.00;;;;;;4752633;30;20067;-95
2024/01/24 12:33:02;;;;;;;20.35;6.75;;;10.90;59.30;;;;;;4722227;30;20114;-94
2024/01/24 12:35:34;;;;;;;24.05;7.10;;;10.30;57.40;;;;;;4752485;30;20060;-94
2024/01/24 12:38:04;;;;;;;23.95;5.55;;;11.00;97.90;;;;;;4738456;30;20059;-96
2024/01/24 12:40:40;;;;;;;28.48;7.50;;;10.90;57.70;;;;;;4740946;30;20055;-94
2024/01/24 12:43:07;;;;;;;25.27;7.90;;;11.80;92.60;;;;;;4739636;30;20052;-94
2024/01/24 12:45:36;;;;;;;26.00;7.00;;;11.00;98.00;;;;;;4741545;30;20053;-95
2024/01/24 12:48:27;;;;;;;30.20;6.07;;;11.10;97.10;;;;;;4740381;30;20056;-95
2024/01/24 12:50:52;;;;;;;28.25;7.60;;;10.60;57.40;;;;;;4755590;30;20056;-94
2024/01/24 12:53:20;;;;;;;22.10;7.20;;;10.30;93.20;;;;;;4740242;30;20056;-96
2024/01/24 12:55:55;;;;;;;28.35;7.82;;;10.10;96.60;;;;;;4748175;30;20472;-95
2024/01/24 12:58:26;;;;;;;25.58;6.88;;;10.90;91.80;;;;;;4727368;30;20060;-95
2024/01/24 13:00:52;;;;;;;25.10;7.60;;;10.10;82.20;;;;;;4727570;30;20138;-96
2024/01/24 13:03:23;;;;;;;19.02;7.00;;;11.70;99.00;;;;;;4727846;30;20091;-96
2024/01/24 13:05:49;;;;;;;22.50;8.02;;;11.00;97.40;;;;;;4727721;30;20411;-95
2024/01/24 13:08:20;;;;;;;22.60;6.32;;;10.80;94.40;;;;;;4742245;30;20067;-95
2024/01/24 13:10:51;;;;;;;20.42;8.77;;;10.80;70.90;;;;;;4727657;30;20063;-95
2024/01/24 13:13:17;;;;;;;26.50;7.32;;;10.80;92.30;;;;;;4729249;30;20052;-95
2024/01/24 13:15:55;;;;;;;20.88;8.15;;;10.70;97.60;;;;;;4726811;30;20063;-94
2024/01/24 13:18:24;;;;;;;25.88;7.75;;;10.70;94.90;;;;;;4727355;30;20052;-95
2024/01/24 13:20:53;;;;;;;24.70;7.07;;;10.60;88.80;;;;;;4741732;30;20055;-95
2024/01/24 13:23:22;;;;;;;27.43;6.90;;;10.40;94.50;;;;;;4726255;30;20060;-94
2024/01/24 13:25:58;;;;;;;21.63;7.10;;;10.30;95.80;;;;;;4727617;30;20840;-95
2024/01/24 13:28:27;;;;;;;29.07;7.23;;;10.30;82.10;;;;;;4726694;30;20158;-95
2024/01/24 13:30:56;;;;;;;23.45;7.22;;;10.20;96.40;;;;;;4727434;30;20130;-95
2024/01/24 13:33:54;;;;;;;27.15;7.45;;;10.20;96.90;;;;;;4741011;30;20056;-94
2024/01/24 13:36:20;;;;;;;28.45;6.80;;;9.80;94.40;;;;;;4726860;30;20058;-95
2024/01/24 13:38:46;;;;;;;27.40;6.50;;;10.10;97.10;;;;;;4726618;30;20845;-95
2024/01/24 13:41:15;;;;;;;27.40;6.40;;;10.10;93.00;;;;;;4725831;30;20052;-95
2024/01/24 13:43:54;;;;;;;23.55;7.40;;;10.10;92.20;;;;;;4742119;30;20516;-96
2024/01/24 13:46:26;;;;;;;34.15;7.32;;;9.40;17.50;;;;;;4729409;30;20090;-94
2024/01/24 13:48:52;;;;;;;25.17;6.82;;;10.20;96.60;;;;;;4726020;30;20063;-95
2024/01/24 13:51:20;;;;;;;30.63;8.13;;;9.90;93.60;;;;;;4747074;30;20048;-95
2024/01/24 13:53:56;;;;;;;30.33;8.70;;;10.00;79.40;;;;;;4724951;30;20060;-95
2024/01/24 13:56:22;;;;;;;28.67;6.53;;;10.10;99.90;;;;;;4711324;30;20055;-94
2024/01/24 13:58:48;;;;;;;25.70;5.75;;;9.10;99.90;;;;;;4725036;30;20048;-95
2024/01/24 14:01:14;;;;;;;29.90;8.33;;;9.90;88.10;;;;;;4725101;30;20051;-95
2024/01/24 14:03:40;;;;;;;24.43;7.57;;;9.90;99.30;;;;;;4724847;30;20378;-96
2024/01/24 14:06:11;;;;;;;33.72;9.43;;;9.90;96.30;;;;;;4740058;30;20401;-96
2024/01/24 14:08:40;;;;;;;24.92;6.72;;;9.70;97.50;;;;;;4739583;30;20056;-96
2024/01/24 14:11:18;;;;;;;;;;;;;;;;;;;;;
2024/01/24 14:13:53;;;;;;;31.88;8.45;;;9.70;77.00;;;;;;4739554;30;20060;-95
2024/01/24 14:16:21;;;;;;;22.17;7.07;;;9.90;99.90;;;;;;4725075;30;20060;-95
2024/01/24 14:18:49;;;;;;;29.58;8.07;;;9.70;97.70;;;;;;4739013;30;20098;-95
2024/01/24 14:21:18;;;;;;;23.63;6.80;;;9.70;99.90;;;;;;4724832;30;20122;-95
2024/01/24 14:23:46;;;;;;;25.08;7.25;;;9.60;94.00;;;;;;4738716;30;20579;-95
2024/01/24 14:26:13;;;;;;;26.50;7.45;;;9.60;98.90;;;;;;4721209;30;20515;-95
2024/01/24 14:28:42;;;;;;;27.13;6.35;;;9.60;97.50;;;;;;4721399;30;20044;-96
2024/01/24 14:31:08;;;;;;;26.95;7.78;;;9.60;99.90;;;;;;4721437;30;20060;-94
2024/01/24 14:33:35;;;;;;;23.92;6.95;;;9.60;97.10;;;;;;4721332;30;20570;-95
2024/01/24 14:36:04;;;;;;;29.50;9.57;;;9.60;99.90;;;;;;4707452;30;20056;-95
2024/01/24 14:38:32;;;;;;;29.23;7.18;;;9.60;99.90;;;;;;4721798;30;20476;-94
2024/01/24 14:41:01;;;;;;;29.15;7.30;;;9.30;95.60;;;;;;4721448;30;20049;-95
2024/01/24 14:43:27;;;;;;;27.73;7.60;;;9.60;99.50;;;;;;4721785;30;20063;-95
2024/01/24 14:45:52;;;;;;;30.17;7.90;;;9.30;99.10;;;;;;4707097;30;20685;-94
2024/01/24 14:48:20;;;;;;;31.60;7.93;;;9.40;97.60;;;;;;4721828;30;20056;-96
2024/01/24 14:50:51;;;;;;;28.42;7.85;;;9.40;99.50;;;;;;4735691;30;20216;-95
2024/01/24 14:53:17;;;;;;;27.58;6.45;;;9.30;98.40;;;;;;4721431;30;20143;-95
2024/01/24 14:55:43;;;;;;;31.98;8.10;;;9.20;98.50;;;;;;4727564;30;20048;-96
2024/01/24 14:58:12;;;;;;;29.77;7.63;;;9.20;83.30;;;;;;4736418;30;20052;-95
2024/01/24 15:00:40;;;;;;;27.98;7.43;;;9.10;97.00;;;;;;4720900;30;20048;-95
2024/01/24 15:03:06;;;;;;;25.90;7.70;;;9.10;99.00;;;;;;4721186;30;20060;-95
2024/01/24 15:05:32;;;;;;;23.87;7.00;;;9.10;99.00;;;;;;4721151;30;20630;-95
2024/01/24 15:07:58;;;;;;;24.57;7.80;;;9.20;97.20;;;;;;4720433;30;20114;-95
2024/01/24 15:10:24;;;;;;;23.63;7.80;;;9.00;99.90;;;;;;4721442;30;20049;-94
2024/01/24 15:12:53;;;;;;;34.57;8.83;;;9.10;99.30;;;;;;4735180;30;20056;-95
2024/01/24 15:15:21;;;;;;;25.17;7.35;;;8.90;98.20;;;;;;4721244;30;20120;-95
2024/01/24 15:17:53;;;;;;;25.15;7.57;;;9.00;99.90;;;;;;4720523;30;20052;-94
2024/01/24 15:20:21;;;;;;;30.70;7.45;;;9.00;99.90;;;;;;4720763;30;20052;-95
2024/01/24 15:22:52;;;;;;;30.80;7.93;;;9.00;99.90;;;;;;4720616;30;20118;-95
2024/01/24 15:25:18;;;;;;;37.22;8.35;;;9.00;99.90;;;;;;4721641;30;20055;-95
2024/01/24 15:27:45;;;;;;;24.67;7.50;;;8.80;93.10;;;;;;4705975;30;20052;-95
2024/01/24 15:30:12;;;;;;;34.83;8.38;;;8.90;99.90;;;;;;4706192;30;20099;-95
2024/01/24 15:32:39;;;;;;;30.70;7.90;;;8.80;99.90;;;;;;4706398;30;20063;-96
2024/01/24 15:35:07;;;;;;;27.42;8.05;;;8.80;99.90;;;;;;4735076;30;20059;-95
2024/01/24 15:37:36;;;;;;;37.60;9.07;;;8.70;99.90;;;;;;4706110;30;20048;-95
2024/01/24 15:40:05;;;;;;;31.60;7.38;;;8.70;99.90;;;;;;4734872;30;20048;-96
2024/01/24 15:42:40;;;;;;;30.13;8.75;;;8.70;99.90;;;;;;4692635;30;20056;-95
2024/01/24 15:45:09;;;;;;;34.97;8.70;;;10.30;99.90;;;;;;4705902;30;20055;-95
2024/01/24 15:47:35;;;;;;;29.02;10.98;;;8.70;99.90;;;;;;4735545;30;20057;-96
2024/01/24 15:50:03;;;;;;;34.78;10.98;;;8.70;99.90;;;;;;4706253;30;20056;-95
2024/01/24 15:52:29;;;;;;;30.25;7.82;;;8.50;99.90;;;;;;4692068;30;20084;-96
2024/01/24 15:55:00;;;;;;;29.20;7.50;;;8.60;99.90;;;;;;4720286;30;20052;-95
2024/01/24 15:57:28;;;;;;;32.40;8.77;;;8.60;99.90;;;;;;4718046;30;20130;-96
2024/01/24 15:59:54;;;;;;;33.28;9.13;;;8.60;99.90;;;;;;4705749;30;20049;-96
2024/01/24 16:02:27;;;;;;;25.85;7.07;;;8.60;99.90;;;;;;4735380;30;20055;-96
2024/01/24 16:04:56;;;;;;;29.35;8.00;;;8.40;99.90;;;;;;4706440;30;20083;-96
2024/01/24 16:07:24;;;;;;;27.17;8.90;;;8.40;99.90;;;;;;4735187;30;20467;-96
2024/01/24 16:09:53;;;;;;;25.33;6.97;;;7.50;99.90;;;;;;4734919;30;20576;-96
2024/01/24 16:12:19;;;;;;;28.02;7.43;;;8.40;99.90;;;;;;4735508;30;20053;-96
2024/01/24 16:14:47;;;;;;;16.97;6.23;;;8.30;99.90;;;;;;4734118;30;20048;-96
2024/01/24 16:17:16;;;;;;;30.50;8.13;;;8.40;99.90;;;;;;4735375;30;20130;-96
2024/01/24 16:19:41;;;;;;;23.33;6.90;;;8.40;99.90;;;;;;4706085;30;20049;-96
2024/01/24 16:22:09;;;;;;;29.43;8.70;;;8.40;99.90;;;;;;4734737;30;20114;-95
2024/01/24 16:24:44;;;;;;;28.23;9.63;;;8.30;99.90;;;;;;4705967;30;20064;-96
2024/01/24 16:27:10;;;;;;;38.30;8.35;;;8.40;99.90;;;;;;4712742;30;20063;-96
2024/01/24 16:29:38;;;;;;;28.37;8.13;;;8.40;99.90;;;;;;4735246;30;20056;-96
2024/01/24 16:32:06;;;;;;;27.65;7.30;;;8.30;99.90;;;;;;4751587;30;20147;-96
2024/01/24 16:34:34;;;;;;;29.67;8.65;;;8.40;99.90;;;;;;4737903;30;20056;-95
2024/01/24 16:36:59;;;;;;;31.08;7.88;;;8.30;99.90;;;;;;4737707;30;20083;-96
2024/01/24 16:39:28;;;;;;;27.87;8.20;;;8.30;99.90;;;;;;4723551;30;20118;-96
2024/01/24 16:42:05;;;;;;;24.58;7.05;;;8.30;99.90;;;;;;4737568;30;20056;-96
2024/01/24 16:44:36;;;;;;;27.92;7.60;;;8.20;99.90;;;;;;4723089;30;20500;-96
2024/01/24 16:47:02;;;;;;;27.63;7.72;;;8.20;99.90;;;;;;4737339;30;20052;-96
2024/01/24 16:49:33;;;;;;;32.23;8.07;;;8.20;99.90;;;;;;4737886;30;20048;-96
2024/01/24 16:52:05;;;;;;;28.98;7.25;;;8.10;99.90;;;;;;4723147;30;20052;-95
2024/01/24 16:54:30;;;;;;;31.90;10.68;;;8.10;99.90;;;;;;4752123;30;20056;-96
2024/01/24 16:56:56;;;;;;;30.13;12.17;;;8.10;99.90;;;;;;4736728;30;20121;-96
2024/01/24 16:59:22;;;;;;;39.57;9.50;;;8.10;99.90;;;;;;4708888;30;20063;-96
2024/01/24 17:01:55;;;;;;;34.97;7.27;;;8.20;99.90;;;;;;4743367;30;20090;-95
2024/01/24 17:04:24;;;;;;;28.40;9.10;;;8.10;99.90;;;;;;4758390;30;20067;-96
2024/01/24 17:06:56;;;;;;;27.00;8.15;;;7.80;99.90;;;;;;4741676;30;20133;-96